sensor_id;sensor_type;location;lat;lon;timestamp;P1;durP1;ratioP1;P2;durP2;ratioP2
11006;SDS011;8186;57.652;11.968;2023-04-12T00:01:30;9.60;;;2.63;;
11006;SDS011;8186;57.652;11.968;2023-04-12T00:03:57;6.83;;;3.00;;
11006;SDS011;8186;57.652;11.968;2023-04-12T00:06:25;7.90;;;2.97;;
11006;SDS011;8186;57.652;11.968;2023-04-12T00:08:56;5.03;;;2.30;;
11006;SDS011;8186;57.652;11.968;2023-04-12T00:11:24;9.13;;;2.27;;
11006;SDS011;8186;57.652;11.968;2023-04-12T00:13:51;4.23;;;2.00;;
11006;SDS011;8186;57.652;11.968;2023-04-12T00:16:18;5.07;;;2.17;;
11006;SDS011;8186;57.652;11.968;2023-04-12T00:18:45;4.47;;;2.37;;
11006;SDS011;8186;57.652;11.968;2023-04-12T00:21:12;4.93;;;2.40;;
11006;SDS011;8186;57.652;11.968;2023-04-12T00:23:45;5.17;;;2.60;;
11006;SDS011;8186;57.652;11.968;2023-04-12T00:26:13;5.33;;;2.43;;
11006;SDS011;8186;57.652;11.968;2023-04-12T00:28:40;6.13;;;2.40;;
11006;SDS011;8186;57.652;11.968;2023-04-12T00:31:08;7.20;;;2.67;;
11006;SDS011;8186;57.652;11.968;2023-04-12T00:33:35;4.77;;;2.33;;
11006;SDS011;8186;57.652;11.968;2023-04-12T00:36:02;6.67;;;3.07;;
11006;SDS011;8186;57.652;11.968;2023-04-12T00:38:29;5.23;;;2.43;;
11006;SDS011;8186;57.652;11.968;2023-04-12T00:40:57;11.03;;;2.67;;
11006;SDS011;8186;57.652;11.968;2023-04-12T00:43:24;5.97;;;2.20;;
11006;SDS011;8186;57.652;11.968;2023-04-12T00:45:51;8.37;;;2.97;;
11006;SDS011;8186;57.652;11.968;2023-04-12T00:48:20;6.93;;;3.03;;
11006;SDS011;8186;57.652;11.968;2023-04-12T00:50:47;4.97;;;3.03;;
11006;SDS011;8186;57.652;11.968;2023-04-12T00:53:14;6.53;;;3.40;;
11006;SDS011;8186;57.652;11.968;2023-04-12T00:55:42;5.00;;;3.40;;
11006;SDS011;8186;57.652;11.968;2023-04-12T00:58:12;5.60;;;3.50;;
11006;SDS011;8186;57.652;11.968;2023-04-12T01:00:39;6.90;;;2.90;;
11006;SDS011;8186;57.652;11.968;2023-04-12T01:03:06;8.87;;;3.50;;
11006;SDS011;8186;57.652;11.968;2023-04-12T01:05:38;5.37;;;3.10;;
11006;SDS011;8186;57.652;11.968;2023-04-12T01:08:08;6.93;;;3.40;;
11006;SDS011;8186;57.652;11.968;2023-04-12T01:10:42;5.93;;;3.07;;
11006;SDS011;8186;57.652;11.968;2023-04-12T01:13:18;7.97;;;3.83;;
11006;SDS011;8186;57.652;11.968;2023-04-12T01:15:50;5.33;;;2.90;;
11006;SDS011;8186;57.652;11.968;2023-04-12T01:18:24;8.17;;;3.20;;
11006;SDS011;8186;57.652;11.968;2023-04-12T01:20:56;6.33;;;3.37;;
11006;SDS011;8186;57.652;11.968;2023-04-12T01:26:31;7.43;;;3.73;;
11006;SDS011;8186;57.652;11.968;2023-04-12T01:29:03;7.63;;;3.27;;
11006;SDS011;8186;57.652;11.968;2023-04-12T01:31:35;5.60;;;3.63;;
11006;SDS011;8186;57.652;11.968;2023-04-12T01:34:02;10.50;;;4.27;;
11006;SDS011;8186;57.652;11.968;2023-04-12T01:36:29;10.17;;;4.33;;
11006;SDS011;8186;57.652;11.968;2023-04-12T01:38:57;6.60;;;3.87;;
11006;SDS011;8186;57.652;11.968;2023-04-12T01:41:24;6.50;;;4.20;;
11006;SDS011;8186;57.652;11.968;2023-04-12T01:43:51;9.13;;;3.83;;
11006;SDS011;8186;57.652;11.968;2023-04-12T01:46:21;9.93;;;4.67;;
11006;SDS011;8186;57.652;11.968;2023-04-12T01:48:49;7.67;;;4.57;;
11006;SDS011;8186;57.652;11.968;2023-04-12T01:51:19;7.60;;;4.47;;
11006;SDS011;8186;57.652;11.968;2023-04-12T01:53:53;6.53;;;4.60;;
11006;SDS011;8186;57.652;11.968;2023-04-12T01:56:23;6.60;;;4.20;;
11006;SDS011;8186;57.652;11.968;2023-04-12T01:58:50;6.17;;;4.63;;
11006;SDS011;8186;57.652;11.968;2023-04-12T02:01:20;7.70;;;5.00;;
11006;SDS011;8186;57.652;11.968;2023-04-12T02:03:47;7.73;;;4.63;;
11006;SDS011;8186;57.652;11.968;2023-04-12T02:06:15;9.73;;;5.53;;
11006;SDS011;8186;57.652;11.968;2023-04-12T02:08:44;8.10;;;5.20;;
11006;SDS011;8186;57.652;11.968;2023-04-12T02:11:12;11.73;;;5.10;;
11006;SDS011;8186;57.652;11.968;2023-04-12T02:13:39;7.20;;;5.07;;
11006;SDS011;8186;57.652;11.968;2023-04-12T02:16:07;10.30;;;5.50;;
11006;SDS011;8186;57.652;11.968;2023-04-12T02:18:36;6.67;;;4.67;;
11006;SDS011;8186;57.652;11.968;2023-04-12T02:21:06;8.03;;;4.70;;
11006;SDS011;8186;57.652;11.968;2023-04-12T02:23:33;9.07;;;5.93;;
11006;SDS011;8186;57.652;11.968;2023-04-12T02:26:00;7.17;;;4.70;;
11006;SDS011;8186;57.652;11.968;2023-04-12T02:28:27;11.50;;;4.80;;
11006;SDS011;8186;57.652;11.968;2023-04-12T02:30:54;6.43;;;4.53;;
11006;SDS011;8186;57.652;11.968;2023-04-12T02:33:21;9.30;;;5.10;;
11006;SDS011;8186;57.652;11.968;2023-04-12T02:35:51;10.97;;;4.57;;
11006;SDS011;8186;57.652;11.968;2023-04-12T02:38:17;7.90;;;4.80;;
11006;SDS011;8186;57.652;11.968;2023-04-12T02:40:44;9.40;;;4.70;;
11006;SDS011;8186;57.652;11.968;2023-04-12T02:43:11;8.00;;;5.03;;
11006;SDS011;8186;57.652;11.968;2023-04-12T02:45:38;13.87;;;5.00;;
11006;SDS011;8186;57.652;11.968;2023-04-12T02:48:05;9.07;;;4.97;;
11006;SDS011;8186;57.652;11.968;2023-04-12T02:50:31;5.63;;;4.80;;
11006;SDS011;8186;57.652;11.968;2023-04-12T02:53:00;7.07;;;4.20;;
11006;SDS011;8186;57.652;11.968;2023-04-12T02:55:26;7.50;;;4.73;;
11006;SDS011;8186;57.652;11.968;2023-04-12T02:57:54;6.63;;;4.43;;
11006;SDS011;8186;57.652;11.968;2023-04-12T03:00:21;7.20;;;4.43;;
11006;SDS011;8186;57.652;11.968;2023-04-12T03:02:48;7.50;;;4.30;;
11006;SDS011;8186;57.652;11.968;2023-04-12T03:05:15;6.63;;;3.97;;
11006;SDS011;8186;57.652;11.968;2023-04-12T03:07:43;7.10;;;4.27;;
11006;SDS011;8186;57.652;11.968;2023-04-12T03:10:11;6.73;;;4.07;;
11006;SDS011;8186;57.652;11.968;2023-04-12T03:12:38;9.80;;;4.17;;
11006;SDS011;8186;57.652;11.968;2023-04-12T03:15:05;12.37;;;4.53;;
11006;SDS011;8186;57.652;11.968;2023-04-12T03:17:33;10.73;;;4.03;;
11006;SDS011;8186;57.652;11.968;2023-04-12T03:20:02;8.10;;;5.00;;
11006;SDS011;8186;57.652;11.968;2023-04-12T03:22:32;8.60;;;4.17;;
11006;SDS011;8186;57.652;11.968;2023-04-12T03:24:58;7.53;;;4.60;;
11006;SDS011;8186;57.652;11.968;2023-04-12T03:27:27;6.63;;;4.27;;
11006;SDS011;8186;57.652;11.968;2023-04-12T03:29:53;8.90;;;4.27;;
11006;SDS011;8186;57.652;11.968;2023-04-12T03:32:21;6.80;;;4.13;;
11006;SDS011;8186;57.652;11.968;2023-04-12T03:34:47;8.83;;;4.87;;
11006;SDS011;8186;57.652;11.968;2023-04-12T03:37:15;12.87;;;5.17;;
11006;SDS011;8186;57.652;11.968;2023-04-12T03:39:42;7.43;;;4.57;;
11006;SDS011;8186;57.652;11.968;2023-04-12T03:42:11;8.27;;;4.20;;
11006;SDS011;8186;57.652;11.968;2023-04-12T03:44:40;7.27;;;5.40;;
11006;SDS011;8186;57.652;11.968;2023-04-12T03:47:07;8.83;;;4.30;;
11006;SDS011;8186;57.652;11.968;2023-04-12T03:49:33;8.60;;;4.90;;
11006;SDS011;8186;57.652;11.968;2023-04-12T03:52:03;11.23;;;4.90;;
11006;SDS011;8186;57.652;11.968;2023-04-12T03:54:30;12.80;;;5.67;;
11006;SDS011;8186;57.652;11.968;2023-04-12T03:56:57;11.73;;;4.43;;
11006;SDS011;8186;57.652;11.968;2023-04-12T03:59:24;8.33;;;4.93;;
11006;SDS011;8186;57.652;11.968;2023-04-12T04:01:52;7.90;;;4.97;;
11006;SDS011;8186;57.652;11.968;2023-04-12T04:04:19;8.40;;;4.93;;
11006;SDS011;8186;57.652;11.968;2023-04-12T04:06:47;11.20;;;5.70;;
11006;SDS011;8186;57.652;11.968;2023-04-12T04:09:14;11.87;;;5.57;;
11006;SDS011;8186;57.652;11.968;2023-04-12T04:11:41;11.47;;;5.50;;
11006;SDS011;8186;57.652;11.968;2023-04-12T04:14:08;12.53;;;5.83;;
11006;SDS011;8186;57.652;11.968;2023-04-12T04:16:35;7.87;;;5.03;;
11006;SDS011;8186;57.652;11.968;2023-04-12T04:19:03;12.10;;;5.60;;
11006;SDS011;8186;57.652;11.968;2023-04-12T04:21:30;12.03;;;5.40;;
11006;SDS011;8186;57.652;11.968;2023-04-12T04:23:58;8.53;;;5.23;;
11006;SDS011;8186;57.652;11.968;2023-04-12T04:26:25;9.77;;;5.17;;
11006;SDS011;8186;57.652;11.968;2023-04-12T04:28:57;11.23;;;5.53;;
11006;SDS011;8186;57.652;11.968;2023-04-12T04:31:26;11.63;;;5.53;;
11006;SDS011;8186;57.652;11.968;2023-04-12T04:33:59;10.90;;;6.53;;
11006;SDS011;8186;57.652;11.968;2023-04-12T04:36:28;11.27;;;6.60;;
11006;SDS011;8186;57.652;11.968;2023-04-12T04:38:56;13.63;;;6.40;;
11006;SDS011;8186;57.652;11.968;2023-04-12T04:41:23;9.07;;;5.43;;
11006;SDS011;8186;57.652;11.968;2023-04-12T04:43:50;12.40;;;5.80;;
11006;SDS011;8186;57.652;11.968;2023-04-12T04:46:18;9.97;;;5.90;;
11006;SDS011;8186;57.652;11.968;2023-04-12T04:48:46;12.57;;;5.70;;
11006;SDS011;8186;57.652;11.968;2023-04-12T04:51:13;7.63;;;4.90;;
11006;SDS011;8186;57.652;11.968;2023-04-12T04:53:41;7.83;;;5.27;;
11006;SDS011;8186;57.652;11.968;2023-04-12T04:56:09;13.53;;;4.77;;
11006;SDS011;8186;57.652;11.968;2023-04-12T04:58:36;9.43;;;4.80;;
11006;SDS011;8186;57.652;11.968;2023-04-12T05:01:03;8.83;;;5.07;;
11006;SDS011;8186;57.652;11.968;2023-04-12T05:03:31;10.20;;;4.73;;
11006;SDS011;8186;57.652;11.968;2023-04-12T05:05:59;8.53;;;5.10;;
11006;SDS011;8186;57.652;11.968;2023-04-12T05:08:26;9.27;;;5.37;;
11006;SDS011;8186;57.652;11.968;2023-04-12T05:10:55;7.57;;;5.57;;
11006;SDS011;8186;57.652;11.968;2023-04-12T05:13:22;7.13;;;4.73;;
11006;SDS011;8186;57.652;11.968;2023-04-12T05:15:49;9.83;;;5.20;;
11006;SDS011;8186;57.652;11.968;2023-04-12T05:18:16;6.17;;;4.37;;
11006;SDS011;8186;57.652;11.968;2023-04-12T05:20:43;9.03;;;4.60;;
11006;SDS011;8186;57.652;11.968;2023-04-12T05:23:12;6.33;;;4.60;;
11006;SDS011;8186;57.652;11.968;2023-04-12T05:25:43;6.13;;;3.80;;
11006;SDS011;8186;57.652;11.968;2023-04-12T05:28:14;7.70;;;3.93;;
11006;SDS011;8186;57.652;11.968;2023-04-12T05:30:41;5.77;;;3.53;;
11006;SDS011;8186;57.652;11.968;2023-04-12T05:33:08;6.47;;;3.43;;
11006;SDS011;8186;57.652;11.968;2023-04-12T05:35:35;5.33;;;3.33;;
11006;SDS011;8186;57.652;11.968;2023-04-12T05:38:02;5.80;;;3.23;;
11006;SDS011;8186;57.652;11.968;2023-04-12T05:40:29;4.13;;;3.20;;
11006;SDS011;8186;57.652;11.968;2023-04-12T05:42:57;4.37;;;2.80;;
11006;SDS011;8186;57.652;11.968;2023-04-12T05:45:25;6.17;;;2.80;;
11006;SDS011;8186;57.652;11.968;2023-04-12T05:47:52;3.50;;;3.20;;
11006;SDS011;8186;57.652;11.968;2023-04-12T05:50:19;4.20;;;3.10;;
11006;SDS011;8186;57.652;11.968;2023-04-12T05:52:46;5.17;;;2.90;;
11006;SDS011;8186;57.652;11.968;2023-04-12T05:55:13;5.50;;;3.10;;
11006;SDS011;8186;57.652;11.968;2023-04-12T05:57:42;6.50;;;3.23;;
11006;SDS011;8186;57.652;11.968;2023-04-12T06:00:10;5.83;;;3.30;;
11006;SDS011;8186;57.652;11.968;2023-04-12T06:02:42;4.23;;;3.10;;
11006;SDS011;8186;57.652;11.968;2023-04-12T06:05:09;5.50;;;2.60;;
11006;SDS011;8186;57.652;11.968;2023-04-12T06:07:37;5.30;;;2.60;;
11006;SDS011;8186;57.652;11.968;2023-04-12T06:10:05;3.33;;;2.33;;
11006;SDS011;8186;57.652;11.968;2023-04-12T06:12:34;4.57;;;2.57;;
11006;SDS011;8186;57.652;11.968;2023-04-12T06:15:00;4.73;;;3.00;;
11006;SDS011;8186;57.652;11.968;2023-04-12T06:17:27;3.47;;;2.30;;
11006;SDS011;8186;57.652;11.968;2023-04-12T06:19:55;6.63;;;2.10;;
11006;SDS011;8186;57.652;11.968;2023-04-12T06:22:22;4.83;;;2.30;;
11006;SDS011;8186;57.652;11.968;2023-04-12T06:24:49;3.73;;;2.03;;
11006;SDS011;8186;57.652;11.968;2023-04-12T06:27:16;5.60;;;2.20;;
11006;SDS011;8186;57.652;11.968;2023-04-12T06:29:44;2.80;;;2.20;;
11006;SDS011;8186;57.652;11.968;2023-04-12T06:32:11;4.13;;;2.03;;
11006;SDS011;8186;57.652;11.968;2023-04-12T06:34:38;4.40;;;1.97;;
11006;SDS011;8186;57.652;11.968;2023-04-12T06:37:07;4.73;;;2.20;;
11006;SDS011;8186;57.652;11.968;2023-04-12T06:39:34;4.13;;;2.10;;
11006;SDS011;8186;57.652;11.968;2023-04-12T06:42:01;6.43;;;2.30;;
11006;SDS011;8186;57.652;11.968;2023-04-12T06:44:27;5.93;;;2.17;;
11006;SDS011;8186;57.652;11.968;2023-04-12T06:46:54;3.43;;;2.13;;
11006;SDS011;8186;57.652;11.968;2023-04-12T06:49:21;3.23;;;2.13;;
11006;SDS011;8186;57.652;11.968;2023-04-12T06:51:48;4.67;;;2.17;;
11006;SDS011;8186;57.652;11.968;2023-04-12T06:54:16;2.67;;;1.93;;
11006;SDS011;8186;57.652;11.968;2023-04-12T06:56:43;4.33;;;2.10;;
11006;SDS011;8186;57.652;11.968;2023-04-12T06:59:10;5.40;;;2.00;;
11006;SDS011;8186;57.652;11.968;2023-04-12T07:01:37;3.87;;;2.30;;
11006;SDS011;8186;57.652;11.968;2023-04-12T07:04:04;3.40;;;2.00;;
11006;SDS011;8186;57.652;11.968;2023-04-12T07:06:30;4.07;;;2.23;;
11006;SDS011;8186;57.652;11.968;2023-04-12T07:08:57;4.97;;;1.80;;
11006;SDS011;8186;57.652;11.968;2023-04-12T07:11:26;4.30;;;2.00;;
11006;SDS011;8186;57.652;11.968;2023-04-12T07:13:52;5.47;;;2.17;;
11006;SDS011;8186;57.652;11.968;2023-04-12T07:16:20;2.77;;;2.00;;
11006;SDS011;8186;57.652;11.968;2023-04-12T07:18:47;4.37;;;2.20;;
11006;SDS011;8186;57.652;11.968;2023-04-12T07:21:14;7.33;;;2.43;;
11006;SDS011;8186;57.652;11.968;2023-04-12T07:23:41;5.10;;;2.13;;
11006;SDS011;8186;57.652;11.968;2023-04-12T07:26:08;3.90;;;1.73;;
11006;SDS011;8186;57.652;11.968;2023-04-12T07:28:37;5.87;;;2.30;;
11006;SDS011;8186;57.652;11.968;2023-04-12T07:31:04;5.87;;;2.20;;
11006;SDS011;8186;57.652;11.968;2023-04-12T07:33:31;5.30;;;2.00;;
11006;SDS011;8186;57.652;11.968;2023-04-12T07:35:59;4.33;;;2.17;;
11006;SDS011;8186;57.652;11.968;2023-04-12T07:38:26;8.47;;;1.80;;
11006;SDS011;8186;57.652;11.968;2023-04-12T07:40:53;2.97;;;1.70;;
11006;SDS011;8186;57.652;11.968;2023-04-12T07:43:20;7.33;;;1.90;;
11006;SDS011;8186;57.652;11.968;2023-04-12T07:45:49;5.37;;;1.53;;
11006;SDS011;8186;57.652;11.968;2023-04-12T07:48:16;6.93;;;2.10;;
11006;SDS011;8186;57.652;11.968;2023-04-12T07:50:43;4.13;;;1.60;;
11006;SDS011;8186;57.652;11.968;2023-04-12T07:53:16;6.00;;;1.53;;
11006;SDS011;8186;57.652;11.968;2023-04-12T07:55:44;5.73;;;1.60;;
11006;SDS011;8186;57.652;11.968;2023-04-12T07:58:10;10.57;;;1.90;;
11006;SDS011;8186;57.652;11.968;2023-04-12T08:00:37;6.93;;;1.90;;
11006;SDS011;8186;57.652;11.968;2023-04-12T08:03:06;3.87;;;1.53;;
11006;SDS011;8186;57.652;11.968;2023-04-12T08:05:33;5.33;;;2.00;;
11006;SDS011;8186;57.652;11.968;2023-04-12T08:07:59;4.00;;;1.30;;
11006;SDS011;8186;57.652;11.968;2023-04-12T08:10:26;4.97;;;1.40;;
11006;SDS011;8186;57.652;11.968;2023-04-12T08:12:53;5.70;;;1.30;;
11006;SDS011;8186;57.652;11.968;2023-04-12T08:15:20;4.70;;;1.70;;
11006;SDS011;8186;57.652;11.968;2023-04-12T08:17:47;6.13;;;1.47;;
11006;SDS011;8186;57.652;11.968;2023-04-12T08:20:15;6.87;;;1.70;;
11006;SDS011;8186;57.652;11.968;2023-04-12T08:22:43;6.30;;;1.57;;
11006;SDS011;8186;57.652;11.968;2023-04-12T08:25:10;6.37;;;1.73;;
11006;SDS011;8186;57.652;11.968;2023-04-12T08:27:38;7.40;;;1.50;;
11006;SDS011;8186;57.652;11.968;2023-04-12T08:30:06;3.93;;;1.40;;
11006;SDS011;8186;57.652;11.968;2023-04-12T08:32:33;5.10;;;1.67;;
11006;SDS011;8186;57.652;11.968;2023-04-12T08:35:01;7.33;;;1.93;;
11006;SDS011;8186;57.652;11.968;2023-04-12T08:37:29;5.03;;;1.77;;
11006;SDS011;8186;57.652;11.968;2023-04-12T08:39:57;8.63;;;2.27;;
11006;SDS011;8186;57.652;11.968;2023-04-12T08:42:25;6.47;;;1.70;;
11006;SDS011;8186;57.652;11.968;2023-04-12T08:44:52;6.30;;;2.00;;
11006;SDS011;8186;57.652;11.968;2023-04-12T08:47:19;7.23;;;1.77;;
11006;SDS011;8186;57.652;11.968;2023-04-12T08:49:46;8.90;;;2.23;;
11006;SDS011;8186;57.652;11.968;2023-04-12T08:52:13;7.17;;;1.97;;
11006;SDS011;8186;57.652;11.968;2023-04-12T08:54:41;3.37;;;1.60;;
11006;SDS011;8186;57.652;11.968;2023-04-12T08:57:08;9.93;;;2.50;;
11006;SDS011;8186;57.652;11.968;2023-04-12T08:59:36;10.60;;;2.37;;
11006;SDS011;8186;57.652;11.968;2023-04-12T09:02:04;8.80;;;1.80;;
11006;SDS011;8186;57.652;11.968;2023-04-12T09:04:31;5.20;;;1.80;;
11006;SDS011;8186;57.652;11.968;2023-04-12T09:06:57;7.90;;;2.10;;
11006;SDS011;8186;57.652;11.968;2023-04-12T09:12:16;5.83;;;1.77;;
11006;SDS011;8186;57.652;11.968;2023-04-12T09:14:44;6.37;;;1.80;;
11006;SDS011;8186;57.652;11.968;2023-04-12T09:17:21;6.63;;;1.83;;
11006;SDS011;8186;57.652;11.968;2023-04-12T09:19:48;6.47;;;2.17;;
11006;SDS011;8186;57.652;11.968;2023-04-12T09:22:15;5.00;;;1.90;;
11006;SDS011;8186;57.652;11.968;2023-04-12T09:24:45;6.37;;;1.43;;
11006;SDS011;8186;57.652;11.968;2023-04-12T09:27:16;3.10;;;1.60;;
11006;SDS011;8186;57.652;11.968;2023-04-12T09:29:45;8.17;;;1.67;;
11006;SDS011;8186;57.652;11.968;2023-04-12T09:32:23;7.83;;;1.70;;
11006;SDS011;8186;57.652;11.968;2023-04-12T09:34:53;4.63;;;1.57;;
11006;SDS011;8186;57.652;11.968;2023-04-12T09:37:21;7.47;;;2.00;;
11006;SDS011;8186;57.652;11.968;2023-04-12T09:39:54;4.93;;;1.70;;
11006;SDS011;8186;57.652;11.968;2023-04-12T09:42:26;5.23;;;1.57;;
11006;SDS011;8186;57.652;11.968;2023-04-12T09:44:53;3.13;;;1.50;;
11006;SDS011;8186;57.652;11.968;2023-04-12T09:47:22;7.50;;;2.00;;
11006;SDS011;8186;57.652;11.968;2023-04-12T09:49:50;4.00;;;1.30;;
11006;SDS011;8186;57.652;11.968;2023-04-12T09:52:17;6.70;;;1.50;;
11006;SDS011;8186;57.652;11.968;2023-04-12T09:54:44;6.93;;;1.97;;
11006;SDS011;8186;57.652;11.968;2023-04-12T09:57:12;6.50;;;2.17;;
11006;SDS011;8186;57.652;11.968;2023-04-12T09:59:44;3.20;;;1.40;;
11006;SDS011;8186;57.652;11.968;2023-04-12T10:02:13;7.77;;;1.50;;
11006;SDS011;8186;57.652;11.968;2023-04-12T10:04:41;7.87;;;1.63;;
11006;SDS011;8186;57.652;11.968;2023-04-12T10:07:08;5.87;;;1.77;;
11006;SDS011;8186;57.652;11.968;2023-04-12T10:09:36;3.23;;;1.27;;
11006;SDS011;8186;57.652;11.968;2023-04-12T10:12:04;4.03;;;1.37;;
11006;SDS011;8186;57.652;11.968;2023-04-12T10:14:31;4.43;;;1.33;;
11006;SDS011;8186;57.652;11.968;2023-04-12T10:17:00;5.17;;;1.33;;
11006;SDS011;8186;57.652;11.968;2023-04-12T10:19:28;6.57;;;1.60;;
11006;SDS011;8186;57.652;11.968;2023-04-12T10:21:57;6.17;;;1.60;;
11006;SDS011;8186;57.652;11.968;2023-04-12T10:24:25;4.20;;;1.60;;
11006;SDS011;8186;57.652;11.968;2023-04-12T10:26:54;4.20;;;1.40;;
11006;SDS011;8186;57.652;11.968;2023-04-12T10:29:24;3.67;;;1.30;;
11006;SDS011;8186;57.652;11.968;2023-04-12T10:31:52;6.13;;;1.30;;
11006;SDS011;8186;57.652;11.968;2023-04-12T10:34:25;3.53;;;1.10;;
11006;SDS011;8186;57.652;11.968;2023-04-12T10:36:53;3.67;;;1.23;;
11006;SDS011;8186;57.652;11.968;2023-04-12T10:39:33;4.00;;;1.43;;
11006;SDS011;8186;57.652;11.968;2023-04-12T10:42:18;4.73;;;1.47;;
11006;SDS011;8186;57.652;11.968;2023-04-12T10:44:47;4.33;;;1.40;;
11006;SDS011;8186;57.652;11.968;2023-04-12T10:47:14;6.17;;;2.07;;
11006;SDS011;8186;57.652;11.968;2023-04-12T10:52:43;3.57;;;1.00;;
11006;SDS011;8186;57.652;11.968;2023-04-12T10:57:56;4.17;;;1.40;;
11006;SDS011;8186;57.652;11.968;2023-04-12T11:00:23;4.13;;;1.37;;
11006;SDS011;8186;57.652;11.968;2023-04-12T11:03:03;6.30;;;1.40;;
11006;SDS011;8186;57.652;11.968;2023-04-12T11:08:25;3.00;;;1.40;;
11006;SDS011;8186;57.652;11.968;2023-04-12T11:10:57;3.33;;;1.30;;
11006;SDS011;8186;57.652;11.968;2023-04-12T11:13:26;5.87;;;1.40;;
11006;SDS011;8186;57.652;11.968;2023-04-12T11:15:53;6.07;;;1.40;;
11006;SDS011;8186;57.652;11.968;2023-04-12T11:18:21;3.10;;;1.20;;
11006;SDS011;8186;57.652;11.968;2023-04-12T11:20:49;7.60;;;1.37;;
11006;SDS011;8186;57.652;11.968;2023-04-12T11:23:17;3.47;;;1.30;;
11006;SDS011;8186;57.652;11.968;2023-04-12T11:25:49;3.80;;;1.10;;
11006;SDS011;8186;57.652;11.968;2023-04-12T11:28:17;3.17;;;1.00;;
11006;SDS011;8186;57.652;11.968;2023-04-12T11:30:48;3.20;;;1.10;;
11006;SDS011;8186;57.652;11.968;2023-04-12T11:33:30;3.80;;;1.10;;
11006;SDS011;8186;57.652;11.968;2023-04-12T11:36:04;3.20;;;1.27;;
11006;SDS011;8186;57.652;11.968;2023-04-12T11:38:31;3.63;;;0.90;;
11006;SDS011;8186;57.652;11.968;2023-04-12T11:41:00;2.77;;;1.10;;
11006;SDS011;8186;57.652;11.968;2023-04-12T11:43:27;3.13;;;1.30;;
11006;SDS011;8186;57.652;11.968;2023-04-12T11:45:55;3.43;;;1.10;;
11006;SDS011;8186;57.652;11.968;2023-04-12T11:48:23;3.57;;;1.30;;
11006;SDS011;8186;57.652;11.968;2023-04-12T11:50:50;3.33;;;1.00;;
11006;SDS011;8186;57.652;11.968;2023-04-12T11:53:17;3.97;;;1.20;;
11006;SDS011;8186;57.652;11.968;2023-04-12T11:55:46;4.67;;;1.17;;
11006;SDS011;8186;57.652;11.968;2023-04-12T11:58:15;4.07;;;1.30;;
11006;SDS011;8186;57.652;11.968;2023-04-12T12:00:42;3.13;;;1.40;;
11006;SDS011;8186;57.652;11.968;2023-04-12T12:03:10;6.57;;;1.43;;
11006;SDS011;8186;57.652;11.968;2023-04-12T12:05:37;3.13;;;1.03;;
11006;SDS011;8186;57.652;11.968;2023-04-12T12:08:05;5.27;;;1.40;;
11006;SDS011;8186;57.652;11.968;2023-04-12T12:10:32;6.20;;;1.67;;
11006;SDS011;8186;57.652;11.968;2023-04-12T12:13:01;5.10;;;1.20;;
11006;SDS011;8186;57.652;11.968;2023-04-12T12:15:29;5.53;;;1.40;;
11006;SDS011;8186;57.652;11.968;2023-04-12T12:17:56;3.57;;;1.23;;
11006;SDS011;8186;57.652;11.968;2023-04-12T12:20:23;3.77;;;1.03;;
11006;SDS011;8186;57.652;11.968;2023-04-12T12:22:51;5.00;;;1.33;;
11006;SDS011;8186;57.652;11.968;2023-04-12T12:25:18;4.00;;;1.27;;
11006;SDS011;8186;57.652;11.968;2023-04-12T12:27:45;5.23;;;1.40;;
11006;SDS011;8186;57.652;11.968;2023-04-12T12:30:15;5.47;;;1.60;;
11006;SDS011;8186;57.652;11.968;2023-04-12T12:32:44;3.80;;;1.30;;
11006;SDS011;8186;57.652;11.968;2023-04-12T12:35:12;3.57;;;1.17;;
11006;SDS011;8186;57.652;11.968;2023-04-12T12:37:47;4.27;;;1.50;;
11006;SDS011;8186;57.652;11.968;2023-04-12T12:40:14;3.00;;;1.37;;
11006;SDS011;8186;57.652;11.968;2023-04-12T12:42:45;7.13;;;1.37;;
11006;SDS011;8186;57.652;11.968;2023-04-12T12:45:14;4.67;;;1.40;;
11006;SDS011;8186;57.652;11.968;2023-04-12T12:47:47;4.63;;;1.20;;
11006;SDS011;8186;57.652;11.968;2023-04-12T12:50:16;5.03;;;1.70;;
11006;SDS011;8186;57.652;11.968;2023-04-12T12:52:43;5.67;;;1.80;;
11006;SDS011;8186;57.652;11.968;2023-04-12T12:55:10;2.90;;;1.33;;
11006;SDS011;8186;57.652;11.968;2023-04-12T12:57:37;5.67;;;1.60;;
11006;SDS011;8186;57.652;11.968;2023-04-12T13:00:06;3.60;;;1.30;;
11006;SDS011;8186;57.652;11.968;2023-04-12T13:02:35;7.50;;;2.00;;
11006;SDS011;8186;57.652;11.968;2023-04-12T13:05:04;3.37;;;1.50;;
11006;SDS011;8186;57.652;11.968;2023-04-12T13:07:31;7.20;;;2.20;;
11006;SDS011;8186;57.652;11.968;2023-04-12T13:09:59;5.00;;;1.80;;
11006;SDS011;8186;57.652;11.968;2023-04-12T13:12:25;4.50;;;2.13;;
11006;SDS011;8186;57.652;11.968;2023-04-12T13:14:53;3.57;;;1.50;;
11006;SDS011;8186;57.652;11.968;2023-04-12T13:17:21;8.40;;;2.27;;
11006;SDS011;8186;57.652;11.968;2023-04-12T13:19:48;5.10;;;1.40;;
11006;SDS011;8186;57.652;11.968;2023-04-12T13:22:17;5.63;;;1.47;;
11006;SDS011;8186;57.652;11.968;2023-04-12T13:24:44;6.80;;;2.13;;
11006;SDS011;8186;57.652;11.968;2023-04-12T13:27:11;4.40;;;1.80;;
11006;SDS011;8186;57.652;11.968;2023-04-12T13:29:39;11.27;;;1.77;;
11006;SDS011;8186;57.652;11.968;2023-04-12T13:32:06;7.13;;;1.27;;
11006;SDS011;8186;57.652;11.968;2023-04-12T13:34:33;4.80;;;1.13;;
11006;SDS011;8186;57.652;11.968;2023-04-12T13:37:00;6.83;;;1.60;;
11006;SDS011;8186;57.652;11.968;2023-04-12T13:39:29;2.97;;;1.40;;
11006;SDS011;8186;57.652;11.968;2023-04-12T13:41:56;4.10;;;1.63;;
11006;SDS011;8186;57.652;11.968;2023-04-12T13:44:23;3.33;;;1.40;;
11006;SDS011;8186;57.652;11.968;2023-04-12T13:46:51;11.33;;;2.10;;
11006;SDS011;8186;57.652;11.968;2023-04-12T13:49:18;8.13;;;2.43;;
11006;SDS011;8186;57.652;11.968;2023-04-12T13:51:45;6.67;;;2.00;;
11006;SDS011;8186;57.652;11.968;2023-04-12T13:54:12;6.73;;;2.07;;
11006;SDS011;8186;57.652;11.968;2023-04-12T13:56:43;7.23;;;2.20;;
11006;SDS011;8186;57.652;11.968;2023-04-12T13:59:10;7.37;;;2.17;;
11006;SDS011;8186;57.652;11.968;2023-04-12T14:01:36;7.90;;;2.07;;
11006;SDS011;8186;57.652;11.968;2023-04-12T14:04:03;7.40;;;2.00;;
11006;SDS011;8186;57.652;11.968;2023-04-12T14:06:30;7.97;;;2.37;;
11006;SDS011;8186;57.652;11.968;2023-04-12T14:08:57;8.57;;;2.37;;
11006;SDS011;8186;57.652;11.968;2023-04-12T14:11:24;5.57;;;1.90;;
11006;SDS011;8186;57.652;11.968;2023-04-12T14:13:53;6.47;;;2.07;;
11006;SDS011;8186;57.652;11.968;2023-04-12T14:16:20;4.47;;;1.73;;
11006;SDS011;8186;57.652;11.968;2023-04-12T14:18:47;3.20;;;1.20;;
11006;SDS011;8186;57.652;11.968;2023-04-12T14:21:14;4.60;;;0.90;;
11006;SDS011;8186;57.652;11.968;2023-04-12T14:23:42;3.63;;;1.07;;
11006;SDS011;8186;57.652;11.968;2023-04-12T14:26:12;2.90;;;1.33;;
11006;SDS011;8186;57.652;11.968;2023-04-12T14:28:41;6.77;;;1.83;;
11006;SDS011;8186;57.652;11.968;2023-04-12T14:31:09;5.20;;;2.03;;
11006;SDS011;8186;57.652;11.968;2023-04-12T14:33:38;11.47;;;2.57;;
11006;SDS011;8186;57.652;11.968;2023-04-12T14:36:05;4.30;;;2.20;;
11006;SDS011;8186;57.652;11.968;2023-04-12T14:38:32;6.47;;;1.63;;
11006;SDS011;8186;57.652;11.968;2023-04-12T14:40:59;3.90;;;1.30;;
11006;SDS011;8186;57.652;11.968;2023-04-12T14:43:26;3.73;;;1.37;;
11006;SDS011;8186;57.652;11.968;2023-04-12T14:45:54;3.17;;;1.10;;
11006;SDS011;8186;57.652;11.968;2023-04-12T14:48:22;4.50;;;1.10;;
11006;SDS011;8186;57.652;11.968;2023-04-12T14:50:49;3.47;;;1.00;;
11006;SDS011;8186;57.652;11.968;2023-04-12T14:53:17;3.97;;;2.47;;
11006;SDS011;8186;57.652;11.968;2023-04-12T14:55:44;4.23;;;2.30;;
11006;SDS011;8186;57.652;11.968;2023-04-12T14:58:12;3.77;;;2.03;;
11006;SDS011;8186;57.652;11.968;2023-04-12T15:00:39;4.37;;;2.27;;
11006;SDS011;8186;57.652;11.968;2023-04-12T15:03:05;5.07;;;1.63;;
11006;SDS011;8186;57.652;11.968;2023-04-12T15:05:34;5.47;;;4.83;;